Time;durP1;ratioP1;P1;durP2;ratioP2;P2;SDS_P1;SDS_P2;PMS_P1;PMS_P2;Temp;Humidity;BMP_temperature;BMP_pressure;BME280_temperature;BME280_humidity;BME280_pressure;Samples;Min_cycle;Max_cycle;Signal;HPM_P1;HPM_P2
2022/04/19 00:00:38;;;;;;;4.72;4.18;;;;;;;;;;4948303;28;99500;-66
2022/04/19 00:03:05;;;;;;;6.60;4.55;;;;;;;;;;4949670;28;98806;-66
2022/04/19 00:05:32;;;;;;;9.38;4.68;;;;;;;;;;4948038;28;100213;-66
2022/04/19 00:08:02;;;;;;;20.98;5.30;;;;;;;;;;4952751;28;99335;-66
2022/04/19 00:10:29;;;;;;;5.95;4.20;;;;;;;;;;4947668;28;99210;-66
2022/04/19 00:12:55;;;;;;;7.82;4.88;;;;;;;;;;4950830;28;99614;-66
2022/04/19 00:15:23;;;;;;;5.00;4.13;;;;;;;;;;4955050;28;98139;-66
2022/04/19 00:17:49;;;;;;;6.88;3.95;;;;;;;;;;4953670;28;98455;-66
2022/04/19 00:20:15;;;;;;;5.05;4.10;;;;;;;;;;4951067;28;100162;-66
2022/04/19 00:22:42;;;;;;;7.15;4.30;;;;;;;;;;4949318;28;101862;-67
2022/04/19 00:25:08;;;;;;;7.07;4.55;;;;;;;;;;4953157;28;100261;-67
2022/04/19 00:27:34;;;;;;;5.85;4.50;;;;;;;;;;4952380;28;99799;-67
2022/04/19 00:30:01;;;;;;;8.65;5.55;;;;;;;;;;4955600;28;98559;-67
2022/04/19 00:32:28;;;;;;;6.60;5.22;;;;;;;;;;4952851;28;99899;-67
2022/04/19 00:34:54;;;;;;;9.43;4.90;;;;;;;;;;4952314;28;98664;-67
2022/04/19 00:37:21;;;;;;;9.20;5.43;;;;;;;;;;4952095;28;99540;-67
2022/04/19 00:39:47;;;;;;;5.10;4.60;;;;;;;;;;4953154;28;98687;-67
2022/04/19 00:42:14;;;;;;;10.07;5.82;;;;;;;;;;4952215;28;98613;-67
2022/04/19 00:44:41;;;;;;;11.80;5.25;;;;;;;;;;4953244;28;99185;-67
2022/04/19 00:47:09;;;;;;;7.30;5.13;;;;;;;;;;4952137;28;101347;-67
2022/04/19 00:49:37;;;;;;;11.70;5.25;;;;;;;;;;4951049;28;99407;-67
2022/04/19 00:52:04;;;;;;;9.52;5.00;;;;;;;;;;4955847;28;100018;-67
2022/04/19 00:54:30;;;;;;;6.20;4.70;;;;;;;;;;4951989;28;98641;-67
2022/04/19 00:56:57;;;;;;;10.13;5.20;;;;;;;;;;4952334;28;99561;-67
2022/04/19 00:59:24;;;;;;;11.38;5.15;;;;;;;;;;4951745;28;99459;-67
2022/04/19 01:01:51;;;;;;;8.15;5.22;;;;;;;;;;4951102;28;99522;-67
2022/04/19 01:04:17;;;;;;;8.60;5.15;;;;;;;;;;4953049;28;100330;-67
2022/04/19 01:06:44;;;;;;;7.88;5.03;;;;;;;;;;4952268;28;100509;-67
2022/04/19 01:09:11;;;;;;;8.68;5.20;;;;;;;;;;4951367;28;98996;-67
2022/04/19 01:14:22;;;;;;;8.63;5.53;;;;;;;;;;4954866;28;100596;-67
2022/04/19 01:16:48;;;;;;;9.07;5.53;;;;;;;;;;4950483;28;99229;-67
2022/04/19 01:19:15;;;;;;;7.88;5.43;;;;;;;;;;4949397;28;99590;-67
2022/04/19 01:21:42;;;;;;;11.48;6.43;;;;;;;;;;4953355;28;98505;-67
2022/04/19 01:24:12;;;;;;;9.57;5.80;;;;;;;;;;4950090;28;99727;-67
2022/04/19 01:26:38;;;;;;;9.80;6.50;;;;;;;;;;4950320;28;99469;-67
2022/04/19 01:29:05;;;;;;;8.35;5.68;;;;;;;;;;4952295;28;97854;-67
2022/04/19 01:31:31;;;;;;;7.80;5.70;;;;;;;;;;4952740;28;98520;-67
2022/04/19 01:33:57;;;;;;;7.03;5.20;;;;;;;;;;4951034;28;99109;-67
2022/04/19 01:36:23;;;;;;;6.20;4.97;;;;;;;;;;4955800;28;99239;-67
2022/04/19 01:38:50;;;;;;;8.60;5.97;;;;;;;;;;4949892;28;99321;-67
2022/04/19 01:41:16;;;;;;;5.25;4.75;;;;;;;;;;4951841;28;99043;-67
2022/04/19 01:43:44;;;;;;;8.35;5.07;;;;;;;;;;4951669;28;100237;-67
2022/04/19 01:46:11;;;;;;;7.35;5.28;;;;;;;;;;4952502;28;99596;-67
2022/04/19 01:48:37;;;;;;;7.10;5.35;;;;;;;;;;4951458;28;98635;-67
2022/04/19 01:51:03;;;;;;;6.38;5.38;;;;;;;;;;4951760;28;99179;-67
2022/04/19 01:53:29;;;;;;;11.80;5.90;;;;;;;;;;4951329;28;98845;-67
2022/04/19 01:55:56;;;;;;;8.25;5.78;;;;;;;;;;4953275;28;99105;-67
2022/04/19 01:58:22;;;;;;;6.35;5.43;;;;;;;;;;4951415;28;99506;-67
2022/04/19 02:00:48;;;;;;;13.43;6.03;;;;;;;;;;4950892;28;99367;-67
2022/04/19 02:03:15;;;;;;;11.43;6.22;;;;;;;;;;4950737;28;99930;-67
2022/04/19 02:05:41;;;;;;;8.38;6.22;;;;;;;;;;4951644;28;98837;-67
2022/04/19 02:08:07;;;;;;;7.38;6.30;;;;;;;;;;4951133;28;98600;-67
2022/04/19 02:10:34;;;;;;;11.60;6.07;;;;;;;;;;4951511;28;99090;-67
2022/04/19 02:13:00;;;;;;;9.73;6.38;;;;;;;;;;4951015;28;99570;-67
2022/04/19 02:15:26;;;;;;;12.80;7.00;;;;;;;;;;4952742;28;98553;-67
2022/04/19 02:17:52;;;;;;;11.70;6.70;;;;;;;;;;4953417;28;100163;-67
2022/04/19 02:20:19;;;;;;;12.60;7.22;;;;;;;;;;4952688;28;98472;-68
2022/04/19 02:22:46;;;;;;;8.25;6.25;;;;;;;;;;4947001;28;101109;-67
2022/04/19 02:25:13;;;;;;;14.05;6.88;;;;;;;;;;4950951;28;100122;-67
2022/04/19 02:27:40;;;;;;;9.65;6.88;;;;;;;;;;4951330;28;98682;-67
2022/04/19 02:30:07;;;;;;;8.65;7.13;;;;;;;;;;4951816;28;99152;-67
2022/04/19 02:32:33;;;;;;;22.50;7.70;;;;;;;;;;4950185;28;100691;-67
2022/04/19 02:35:00;;;;;;;13.38;7.88;;;;;;;;;;4950751;28;98622;-67
2022/04/19 02:37:28;;;;;;;12.57;7.40;;;;;;;;;;4950896;28;99718;-67
2022/04/19 02:39:54;;;;;;;11.07;6.70;;;;;;;;;;4952666;28;99163;-67
2022/04/19 02:42:21;;;;;;;15.07;7.53;;;;;;;;;;4951665;28;98937;-67
2022/04/19 02:44:47;;;;;;;11.38;6.95;;;;;;;;;;4951538;28;99494;-67
2022/04/19 02:47:15;;;;;;;12.45;7.30;;;;;;;;;;4950819;28;98633;-67
2022/04/19 02:49:42;;;;;;;9.60;7.20;;;;;;;;;;4950185;28;99244;-67
2022/04/19 02:52:10;;;;;;;11.15;7.57;;;;;;;;;;4950073;28;100553;-66
2022/04/19 02:54:37;;;;;;;12.93;8.48;;;;;;;;;;4950340;28;98896;-67
2022/04/19 02:57:08;;;;;;;12.77;8.65;;;;;;;;;;4950520;28;100192;-67
2022/04/19 02:59:34;;;;;;;12.65;9.25;;;;;;;;;;4951023;28;100713;-67
2022/04/19 03:02:00;;;;;;;11.25;9.07;;;;;;;;;;4953432;28;98563;-67
2022/04/19 03:04:27;;;;;;;13.25;8.95;;;;;;;;;;4949830;28;99801;-67
2022/04/19 03:06:53;;;;;;;11.15;9.38;;;;;;;;;;4950312;28;97782;-67
2022/04/19 03:09:19;;;;;;;13.35;9.20;;;;;;;;;;4949684;28;98573;-67
2022/04/19 03:11:45;;;;;;;17.15;9.18;;;;;;;;;;4949775;28;100541;-67
2022/04/19 03:14:12;;;;;;;11.95;9.18;;;;;;;;;;4950218;28;99417;-67
2022/04/19 03:16:38;;;;;;;13.65;9.38;;;;;;;;;;4950388;28;99836;-67
2022/04/19 03:19:04;;;;;;;13.00;9.38;;;;;;;;;;4950040;28;99903;-67
2022/04/19 03:21:30;;;;;;;12.20;8.90;;;;;;;;;;4950414;28;98561;-67
2022/04/19 03:29:26;;;;;;;11.07;8.60;;;;;;;;;;4950424;28;99151;-67
2022/04/19 03:31:54;;;;;;;13.35;8.90;;;;;;;;;;4950123;28;98979;-67
2022/04/19 03:34:20;;;;;;;14.57;9.05;;;;;;;;;;4949383;28;98539;-67
2022/04/19 03:36:47;;;;;;;13.43;8.38;;;;;;;;;;4951394;28;99253;-67
2022/04/19 03:39:13;;;;;;;15.35;9.30;;;;;;;;;;4948979;28;100267;-67
2022/04/19 03:41:40;;;;;;;13.18;8.95;;;;;;;;;;4950132;28;98616;-67
2022/04/19 03:44:07;;;;;;;13.32;9.48;;;;;;;;;;4949188;28;99377;-67
2022/04/19 03:47:07;;;;;;;10.93;8.75;;;;;;;;;;4952915;28;99687;-67
2022/04/19 03:49:20;;;;;;;15.95;9.45;;;;;;;;;;4949298;28;100765;-67
2022/04/19 03:51:46;;;;;;;11.23;8.45;;;;;;;;;;4950499;28;100461;-67
2022/04/19 03:54:12;;;;;;;23.65;10.00;;;;;;;;;;4949331;28;98636;-66
2022/04/19 03:56:38;;;;;;;18.05;9.60;;;;;;;;;;4949383;28;100287;-67
2022/04/19 03:59:06;;;;;;;12.55;9.52;;;;;;;;;;4947273;28;100026;-67
2022/04/19 04:01:32;;;;;;;12.65;9.20;;;;;;;;;;4949156;28;98682;-67
2022/04/19 04:03:58;;;;;;;14.07;9.77;;;;;;;;;;4949533;28;99738;-67
2022/04/19 04:06:25;;;;;;;15.05;9.18;;;;;;;;;;4952793;28;100467;-67
2022/04/19 04:08:51;;;;;;;13.68;8.73;;;;;;;;;;4949208;28;99000;-67
2022/04/19 04:11:18;;;;;;;13.85;9.85;;;;;;;;;;4950313;28;99500;-67
2022/04/19 04:13:45;;;;;;;12.68;9.43;;;;;;;;;;4948470;28;98717;-67
2022/04/19 04:16:11;;;;;;;14.18;10.00;;;;;;;;;;4950154;28;100155;-67
2022/04/19 04:18:39;;;;;;;15.05;9.57;;;;;;;;;;4947123;28;99607;-67
2022/04/19 04:21:06;;;;;;;10.93;9.00;;;;;;;;;;4950356;28;98179;-67
2022/04/19 04:23:33;;;;;;;11.70;9.23;;;;;;;;;;4945385;28;98632;-67
2022/04/19 04:25:59;;;;;;;11.82;9.57;;;;;;;;;;4948822;28;99128;-67
2022/04/19 04:28:26;;;;;;;13.90;9.30;;;;;;;;;;4952077;28;99305;-67
2022/04/19 04:30:52;;;;;;;14.38;8.93;;;;;;;;;;4948692;28;99346;-67
2022/04/19 04:33:19;;;;;;;12.75;9.30;;;;;;;;;;4949180;28;98816;-67
2022/04/19 04:35:45;;;;;;;13.85;8.82;;;;;;;;;;4949809;28;100332;-67
2022/04/19 04:38:11;;;;;;;11.70;8.68;;;;;;;;;;4949782;28;99367;-67
2022/04/19 04:40:37;;;;;;;17.17;8.98;;;;;;;;;;4948899;28;98760;-67
2022/04/19 04:43:04;;;;;;;14.10;9.82;;;;;;;;;;4949507;28;99149;-67
2022/04/19 04:45:30;;;;;;;12.48;8.98;;;;;;;;;;4949190;28;100235;-67
2022/04/19 04:50:41;;;;;;;10.13;8.45;;;;;;;;;;4952500;28;100201;-67
2022/04/19 04:53:08;;;;;;;11.50;8.88;;;;;;;;;;4948109;28;101021;-67
2022/04/19 04:55:34;;;;;;;12.60;8.90;;;;;;;;;;4947447;28;100354;-67
2022/04/19 04:58:01;;;;;;;12.65;8.98;;;;;;;;;;4949641;28;99137;-67
2022/04/19 05:00:28;;;;;;;14.57;9.23;;;;;;;;;;4952165;28;98621;-67
2022/04/19 05:02:55;;;;;;;18.00;9.35;;;;;;;;;;4946218;28;99263;-67
2022/04/19 05:05:22;;;;;;;10.82;9.07;;;;;;;;;;4951518;28;100536;-67
2022/04/19 05:07:48;;;;;;;17.20;9.57;;;;;;;;;;4951767;28;98675;-67
2022/04/19 05:10:14;;;;;;;17.00;9.77;;;;;;;;;;4953250;28;99270;-67
2022/04/19 05:12:40;;;;;;;10.75;8.35;;;;;;;;;;4955803;28;99536;-67
2022/04/19 05:15:07;;;;;;;13.73;9.00;;;;;;;;;;4953065;28;99218;-67
2022/04/19 05:17:33;;;;;;;14.77;9.65;;;;;;;;;;4951315;28;102752;-67
2022/04/19 05:20:00;;;;;;;13.02;9.10;;;;;;;;;;4951533;28;99932;-67
2022/04/19 05:22:26;;;;;;;16.50;9.43;;;;;;;;;;4952523;28;98566;-66
2022/04/19 05:24:52;;;;;;;13.95;9.18;;;;;;;;;;4952085;28;99307;-66
2022/04/19 05:27:19;;;;;;;15.20;10.15;;;;;;;;;;4953386;28;98584;-66
2022/04/19 05:29:45;;;;;;;13.82;9.63;;;;;;;;;;4951244;28;100273;-67
2022/04/19 05:32:11;;;;;;;22.85;10.23;;;;;;;;;;4952786;28;99539;-66
2022/04/19 05:34:37;;;;;;;14.85;8.40;;;;;;;;;;4948258;28;97913;-66
2022/04/19 05:37:04;;;;;;;18.10;9.18;;;;;;;;;;4949969;28;99491;-66
2022/04/19 05:39:30;;;;;;;17.85;8.93;;;;;;;;;;4952200;28;98541;-66
2022/04/19 05:41:56;;;;;;;18.40;9.20;;;;;;;;;;4951884;28;99303;-66
2022/04/19 05:44:23;;;;;;;17.80;8.63;;;;;;;;;;4951004;28;98812;-67
2022/04/19 05:46:51;;;;;;;16.15;8.80;;;;;;;;;;4953192;28;98575;-67
2022/04/19 05:49:17;;;;;;;14.57;9.32;;;;;;;;;;4949644;28;99934;-65
2022/04/19 05:51:43;;;;;;;22.58;10.30;;;;;;;;;;4949207;28;99797;-65
2022/04/19 05:54:10;;;;;;;18.13;9.18;;;;;;;;;;4951120;28;100068;-67
2022/04/19 05:56:36;;;;;;;23.73;9.35;;;;;;;;;;4969989;28;99592;-65
2022/04/19 05:59:02;;;;;;;22.55;10.77;;;;;;;;;;4951708;28;98025;-65
2022/04/19 06:04:51;;;;;;;41.85;9.93;;;;;;;;;;4950825;28;98987;-65
2022/04/19 06:07:00;;;;;;;26.23;10.23;;;;;;;;;;4951242;28;99222;-65
2022/04/19 06:09:26;;;;;;;18.48;8.85;;;;;;;;;;4951160;28;100673;-65
2022/04/19 06:11:53;;;;;;;20.42;9.27;;;;;;;;;;4951441;28;99522;-65
2022/04/19 06:14:19;;;;;;;12.68;8.63;;;;;;;;;;4950953;28;98529;-65
2022/04/19 06:16:45;;;;;;;22.85;9.85;;;;;;;;;;4954906;28;99172;-65
2022/04/19 06:19:11;;;;;;;26.02;10.15;;;;;;;;;;4951407;28;100240;-65
2022/04/19 06:21:39;;;;;;;21.90;10.23;;;;;;;;;;4949671;28;100319;-66
2022/04/19 06:24:05;;;;;;;21.77;10.90;;;;;;;;;;4947190;28;98890;-66
2022/04/19 06:26:32;;;;;;;23.48;10.57;;;;;;;;;;4949817;28;98577;-65
2022/04/19 06:28:58;;;;;;;14.13;9.57;;;;;;;;;;4958985;28;99255;-65
2022/04/19 06:31:24;;;;;;;36.20;10.90;;;;;;;;;;4950316;28;100747;-65
2022/04/19 06:33:50;;;;;;;13.95;10.45;;;;;;;;;;4949905;28;98650;-64
2022/04/19 06:36:18;;;;;;;19.70;10.38;;;;;;;;;;4949572;28;99255;-65
2022/04/19 06:38:44;;;;;;;30.10;10.38;;;;;;;;;;4954312;28;99487;-65
2022/04/19 06:41:11;;;;;;;19.13;10.63;;;;;;;;;;4958641;28;99251;-66
2022/04/19 06:43:37;;;;;;;24.65;11.00;;;;;;;;;;4951829;28;99452;-66
2022/04/19 06:46:03;;;;;;;18.77;10.15;;;;;;;;;;4950696;28;98576;-67
2022/04/19 06:48:30;;;;;;;16.02;10.35;;;;;;;;;;4951592;28;99198;-67
2022/04/19 06:50:56;;;;;;;20.85;10.00;;;;;;;;;;4949952;28;102093;-67
2022/04/19 06:53:42;;;;;;;17.23;10.30;;;;;;;;;;4950441;28;98897;-67
2022/04/19 06:56:10;;;;;;;20.70;10.63;;;;;;;;;;4948809;28;99404;-66
2022/04/19 06:58:36;;;;;;;15.40;9.48;;;;;;;;;;4950821;28;101286;-66
2022/04/19 07:01:02;;;;;;;16.90;10.13;;;;;;;;;;4954418;28;99210;-67
2022/04/19 07:03:29;;;;;;;24.13;10.20;;;;;;;;;;4948769;28;99959;-67
2022/04/19 07:05:55;;;;;;;21.85;10.73;;;;;;;;;;4949754;28;98660;-67
2022/04/19 07:08:21;;;;;;;21.25;9.73;;;;;;;;;;4950458;28;99229;-67
2022/04/19 07:10:48;;;;;;;13.30;9.93;;;;;;;;;;4950225;28;100537;-66
2022/04/19 07:13:14;;;;;;;17.17;11.07;;;;;;;;;;4951686;28;97981;-66
2022/04/19 07:15:40;;;;;;;15.43;10.20;;;;;;;;;;4947967;28;98950;-66
2022/04/19 07:18:07;;;;;;;17.50;10.32;;;;;;;;;;4939445;28;101022;-66
2022/04/19 07:28:47;;;;;;;16.13;10.15;;;;;;;;;;4947640;28;100382;-67
2022/04/19 07:31:14;;;;;;;22.33;9.65;;;;;;;;;;4949547;28;99185;-67
2022/04/19 07:33:40;;;;;;;26.65;10.60;;;;;;;;;;4968906;28;98569;-67
2022/04/19 07:36:06;;;;;;;29.48;9.95;;;;;;;;;;4951185;28;100513;-67
2022/04/19 07:38:33;;;;;;;21.88;9.52;;;;;;;;;;4965740;28;98848;-67
2022/04/19 07:40:59;;;;;;;25.13;9.52;;;;;;;;;;4951215;28;98568;-67
2022/04/19 07:43:25;;;;;;;17.20;9.00;;;;;;;;;;4950573;28;99932;-67
2022/04/19 07:45:52;;;;;;;18.90;9.70;;;;;;;;;;4949875;28;100715;-67
2022/04/19 07:48:18;;;;;;;17.63;10.13;;;;;;;;;;4950977;28;99979;-65
2022/04/19 07:50:45;;;;;;;16.88;9.63;;;;;;;;;;4949114;28;99534;-66
2022/04/19 07:53:11;;;;;;;15.75;9.52;;;;;;;;;;4933202;28;101297;-66
2022/04/19 07:55:38;;;;;;;18.38;8.88;;;;;;;;;;4948708;28;99491;-66
2022/04/19 07:58:04;;;;;;;18.80;9.50;;;;;;;;;;4949245;28;99445;-66
2022/04/19 08:00:30;;;;;;;17.80;9.50;;;;;;;;;;4949062;28;98719;-67
2022/04/19 08:02:57;;;;;;;15.82;8.85;;;;;;;;;;4950540;28;99021;-67
2022/04/19 08:05:24;;;;;;;13.50;8.25;;;;;;;;;;4948630;28;99456;-67
2022/04/19 08:07:50;;;;;;;16.45;8.52;;;;;;;;;;4953916;28;98517;-67
2022/04/19 08:10:17;;;;;;;14.90;8.57;;;;;;;;;;4949456;28;100312;-67
2022/04/19 08:12:44;;;;;;;16.15;8.68;;;;;;;;;;4950281;28;98580;-67
2022/04/19 08:15:10;;;;;;;17.42;9.30;;;;;;;;;;4950070;28;99313;-66
2022/04/19 08:17:37;;;;;;;12.30;7.57;;;;;;;;;;4949221;28;99500;-67
2022/04/19 08:20:04;;;;;;;10.80;7.88;;;;;;;;;;4950883;28;98767;-67
2022/04/19 08:22:30;;;;;;;10.20;5.78;;;;;;;;;;4949644;28;100054;-66
2022/04/19 08:24:57;;;;;;;12.73;5.57;;;;;;;;;;4949428;28;100710;-67
2022/04/19 08:27:23;;;;;;;12.77;5.00;;;;;;;;;;4954306;28;98242;-67
2022/04/19 08:29:49;;;;;;;7.55;5.15;;;;;;;;;;4949893;28;99484;-67
2022/04/19 08:32:15;;;;;;;10.00;5.05;;;;;;;;;;4949616;28;98502;-67
2022/04/19 08:34:42;;;;;;;11.55;5.57;;;;;;;;;;4950444;28;99261;-67
2022/04/19 08:37:09;;;;;;;12.75;5.45;;;;;;;;;;4955539;28;100850;-67
2022/04/19 08:39:36;;;;;;;8.85;5.05;;;;;;;;;;4950463;28;98842;-67
2022/04/19 08:42:03;;;;;;;9.15;5.57;;;;;;;;;;4952946;28;99151;-67
2022/04/19 08:44:30;;;;;;;7.50;4.50;;;;;;;;;;4953605;28;99510;-67
2022/04/19 08:46:57;;;;;;;7.88;4.50;;;;;;;;;;4952336;28;98578;-72
2022/04/19 08:49:24;;;;;;;17.23;6.18;;;;;;;;;;4953047;28;100103;-69
2022/04/19 08:51:50;;;;;;;69.25;19.55;;;;;;;;;;4950908;28;98183;-66
2022/04/19 08:59:47;;;;;;;68.30;20.92;;;;;;;;;;4952963;28;99309;-66
2022/04/19 09:02:20;;;;;;;13.20;5.40;;;;;;;;;;4952333;28;100099;-66
2022/04/19 09:04:48;;;;;;;9.82;5.25;;;;;;;;;;4952060;28;99564;-66
2022/04/19 09:07:14;;;;;;;10.48;5.53;;;;;;;;;;4953422;28;98592;-66
2022/04/19 09:09:41;;;;;;;18.45;6.38;;;;;;;;;;4952173;28;100296;-66
2022/04/19 09:12:10;;;;;;;18.85;7.88;;;;;;;;;;4953540;28;99550;-66
2022/04/19 14:56:27;;;;;;;3.60;2.00;;;;;;;;;;5069969;27;86487;-65
2022/04/19 14:58:54;;;;;;;5.03;1.90;;;;;;;;;;5035430;28;86664;-66
2022/04/19 15:01:20;;;;;;;11.32;2.40;;;;;;;;;;5030016;27;88055;-65
2022/04/19 15:03:46;;;;;;;3.92;2.30;;;;;;;;;;5018211;27;87498;-66
2022/04/19 15:06:13;;;;;;;3.00;2.25;;;;;;;;;;5014884;28;89125;-65
2022/04/19 15:08:39;;;;;;;2.47;2.25;;;;;;;;;;5014942;28;87321;-65
2022/04/19 15:11:05;;;;;;;3.22;2.28;;;;;;;;;;5017540;28;87419;-65
2022/04/19 15:13:32;;;;;;;5.63;2.50;;;;;;;;;;5028970;28;87754;-65
2022/04/19 15:15:58;;;;;;;9.90;2.00;;;;;;;;;;5035304;27;87280;-66
2022/04/19 15:18:24;;;;;;;3.83;1.92;;;;;;;;;;5014962;28;87629;-66
2022/04/19 15:20:51;;;;;;;3.55;2.25;;;;;;;;;;5016003;28;87158;-66
2022/04/19 15:23:17;;;;;;;5.65;2.25;;;;;;;;;;5014688;28;86825;-66
2022/04/19 15:25:43;;;;;;;4.50;2.03;;;;;;;;;;5018333;28;88442;-66
2022/04/19 15:28:10;;;;;;;3.50;2.15;;;;;;;;;;5014850;27;87818;-66
2022/04/19 15:30:42;;;;;;;3.38;2.15;;;;;;;;;;5014056;28;88791;-66
2022/04/19 15:33:09;;;;;;;7.28;2.47;;;;;;;;;;5014157;28;88308;-66
2022/04/19 15:35:35;;;;;;;2.63;2.10;;;;;;;;;;5014645;28;87338;-67
2022/04/19 15:38:01;;;;;;;3.70;2.35;;;;;;;;;;5017304;28;87380;-66
2022/04/19 15:40:28;;;;;;;4.75;2.03;;;;;;;;;;5021012;28;87488;-66
2022/04/19 15:42:54;;;;;;;7.15;3.22;;;;;;;;;;5013767;28;87313;-66
2022/04/19 15:45:20;;;;;;;6.30;2.83;;;;;;;;;;5018289;27;88053;-66
2022/04/19 15:47:47;;;;;;;8.50;2.00;;;;;;;;;;5021765;27;87959;-66
2022/04/19 15:50:13;;;;;;;3.75;1.80;;;;;;;;;;5019589;28;87624;-66
2022/04/19 15:52:40;;;;;;;2.65;2.00;;;;;;;;;;5020785;27;87514;-66
2022/04/19 15:55:06;;;;;;;4.40;2.15;;;;;;;;;;5023963;27;87091;-66
2022/04/19 15:57:32;;;;;;;3.83;2.17;;;;;;;;;;5017742;27;87251;-66
2022/04/19 15:59:59;;;;;;;3.60;2.03;;;;;;;;;;5017642;28;86984;-64
2022/04/19 16:02:25;;;;;;;3.60;2.10;;;;;;;;;;5012998;28;87742;-66
2022/04/19 16:04:51;;;;;;;4.50;2.10;;;;;;;;;;5014170;28;87923;-64
2022/04/19 16:07:18;;;;;;;4.28;2.00;;;;;;;;;;5001808;28;87134;-64
2022/04/19 16:09:45;;;;;;;4.25;2.00;;;;;;;;;;4999873;28;87264;-64
2022/04/19 16:12:11;;;;;;;6.63;2.13;;;;;;;;;;5012522;28;88012;-64
2022/04/19 16:14:38;;;;;;;4.18;2.58;;;;;;;;;;5000539;28;87150;-64
2022/04/19 16:25:18;;;;;;;2.88;1.83;;;;;;;;;;5020474;28;87930;-63
2022/04/19 16:27:44;;;;;;;3.40;1.80;;;;;;;;;;5019412;28;86934;-64
2022/04/19 16:30:11;;;;;;;12.20;2.00;;;;;;;;;;5012492;28;87401;-62
2022/04/19 16:32:38;;;;;;;8.68;2.05;;;;;;;;;;5013036;28;87816;-65
2022/04/19 16:35:04;;;;;;;4.50;1.83;;;;;;;;;;5018674;28;88070;-65
2022/04/19 16:37:31;;;;;;;1.33;1.23;;;;;;;;;;5002278;28;87313;-65
2022/04/19 16:39:57;;;;;;;4.45;1.50;;;;;;;;;;5001704;28;87857;-65
2022/04/19 16:42:23;;;;;;;2.30;1.90;;;;;;;;;;5000574;28;88576;-65
2022/04/19 16:44:49;;;;;;;6.25;3.35;;;;;;;;;;5004141;28;87433;-65
2022/04/19 16:47:16;;;;;;;6.63;1.42;;;;;;;;;;5019879;28;87869;-65
2022/04/19 16:49:42;;;;;;;3.47;1.40;;;;;;;;;;5010101;28;87588;-66
2022/04/19 16:52:08;;;;;;;2.53;1.38;;;;;;;;;;5001206;28;88794;-65
2022/04/19 16:54:35;;;;;;;1.77;1.27;;;;;;;;;;5002788;28;87816;-65
2022/04/19 16:57:01;;;;;;;2.50;1.45;;;;;;;;;;5019136;28;87223;-66
2022/04/19 16:59:27;;;;;;;4.38;1.40;;;;;;;;;;5017426;28;87538;-65
2022/04/19 17:01:53;;;;;;;5.03;1.58;;;;;;;;;;5002421;28;87161;-65
2022/04/19 17:04:20;;;;;;;4.75;1.40;;;;;;;;;;5016490;28;87337;-65
2022/04/19 17:06:47;;;;;;;5.88;1.60;;;;;;;;;;5007792;28;86938;-65
2022/04/19 17:09:13;;;;;;;6.40;1.35;;;;;;;;;;4999235;28;88504;-65
2022/04/19 17:11:43;;;;;;;6.18;1.23;;;;;;;;;;4998323;28;87674;-66
2022/04/19 17:14:10;;;;;;;17.35;1.50;;;;;;;;;;4999944;28;87429;-66
2022/04/19 17:16:37;;;;;;;7.88;1.38;;;;;;;;;;5001623;28;87494;-66
2022/04/19 17:19:04;;;;;;;3.50;1.58;;;;;;;;;;5001789;28;89128;-66
2022/04/19 17:21:32;;;;;;;10.45;1.60;;;;;;;;;;4999089;28;87125;-65
2022/04/19 17:23:59;;;;;;;4.35;1.50;;;;;;;;;;4999775;28;87191;-65
2022/04/19 17:26:26;;;;;;;7.78;1.52;;;;;;;;;;5003304;28;88958;-66
2022/04/19 17:28:52;;;;;;;2.33;1.30;;;;;;;;;;5002750;28;87347;-65
2022/04/19 17:31:18;;;;;;;6.78;1.73;;;;;;;;;;5000927;28;86891;-65
2022/04/19 17:33:45;;;;;;;8.30;1.70;;;;;;;;;;5007708;28;86968;-66
2022/04/19 17:36:12;;;;;;;3.55;1.55;;;;;;;;;;5019211;28;87101;-66
2022/04/19 17:38:38;;;;;;;5.57;1.67;;;;;;;;;;5014217;28;86682;-67
2022/04/19 17:41:06;;;;;;;4.75;1.60;;;;;;;;;;5018343;28;87034;-64
2022/04/19 17:43:33;;;;;;;3.72;1.63;;;;;;;;;;5018149;28;88482;-64
2022/04/19 17:45:59;;;;;;;4.95;1.75;;;;;;;;;;5019691;28;88732;-65
2022/04/19 17:48:25;;;;;;;7.90;1.92;;;;;;;;;;5014655;28;87108;-65
2022/04/19 17:56:34;;;;;;;2.05;1.50;;;;;;;;;;5000878;28;87532;-65
2022/04/19 17:59:02;;;;;;;9.68;2.20;;;;;;;;;;4997540;28;87827;-65
2022/04/19 18:01:29;;;;;;;5.85;1.98;;;;;;;;;;5006281;28;87102;-66
2022/04/19 18:03:55;;;;;;;7.13;1.65;;;;;;;;;;5014530;28;88333;-65
2022/04/19 18:06:23;;;;;;;3.67;2.00;;;;;;;;;;5018607;28;87283;-65
2022/04/19 18:08:49;;;;;;;2.22;1.65;;;;;;;;;;5018848;28;87113;-65
2022/04/19 18:11:16;;;;;;;10.88;1.95;;;;;;;;;;5005317;28;87171;-64
2022/04/19 18:13:42;;;;;;;2.53;1.77;;;;;;;;;;5008357;28;87348;-70
2022/04/19 18:16:08;;;;;;;5.80;2.60;;;;;;;;;;5009533;28;87530;-64
2022/04/19 18:18:36;;;;;;;10.15;2.05;;;;;;;;;;5018945;28;89038;-63
2022/04/19 18:21:03;;;;;;;7.40;2.38;;;;;;;;;;5011870;28;88422;-63
2022/04/19 18:26:21;;;;;;;9.73;2.33;;;;;;;;;;5006000;28;87626;-66
2022/04/19 18:28:47;;;;;;;5.57;2.13;;;;;;;;;;5009052;28;87111;-62
2022/04/19 18:31:14;;;;;;;7.32;2.75;;;;;;;;;;5011841;28;87321;-64
2022/04/19 18:33:41;;;;;;;6.25;2.92;;;;;;;;;;5019761;28;86847;-64
2022/04/19 18:36:08;;;;;;;6.22;2.05;;;;;;;;;;5016125;28;86904;-64
2022/04/19 18:38:35;;;;;;;7.28;2.28;;;;;;;;;;4997880;28;87974;-64
2022/04/19 18:41:02;;;;;;;5.10;2.13;;;;;;;;;;5010200;28;87282;-66
2022/04/19 18:43:29;;;;;;;16.00;2.80;;;;;;;;;;5005600;28;87643;-66
2022/04/19 18:45:56;;;;;;;7.13;2.75;;;;;;;;;;5004161;28;88025;-66
2022/04/19 18:48:22;;;;;;;8.70;3.08;;;;;;;;;;5004595;28;88386;-65
2022/04/19 18:50:48;;;;;;;7.78;3.40;;;;;;;;;;5006243;28;87347;-65
2022/04/19 18:53:15;;;;;;;3.50;2.75;;;;;;;;;;4998098;28;87375;-66
2022/04/19 18:55:41;;;;;;;7.38;4.22;;;;;;;;;;5010572;28;87330;-64
2022/04/19 18:58:10;;;;;;;20.75;7.45;;;;;;;;;;5009718;28;86946;-66
2022/04/19 19:00:37;;;;;;;28.67;11.48;;;;;;;;;;4998297;28;87428;-66
2022/04/19 19:03:04;;;;;;;26.00;11.52;;;;;;;;;;4995818;28;89299;-65
2022/04/19 19:05:31;;;;;;;22.63;11.38;;;;;;;;;;5001394;28;90165;-65
2022/04/19 19:07:57;;;;;;;25.75;11.93;;;;;;;;;;5012818;28;90177;-65
2022/04/19 19:10:24;;;;;;;24.55;11.63;;;;;;;;;;4996427;28;89030;-66
2022/04/19 19:12:54;;;;;;;22.08;11.32;;;;;;;;;;4995460;28;90076;-66
2022/04/19 19:15:20;;;;;;;24.57;9.43;;;;;;;;;;4999118;28;89292;-65
2022/04/19 19:17:47;;;;;;;22.38;9.60;;;;;;;;;;5010355;28;89694;-64
2022/04/19 19:20:13;;;;;;;24.25;9.63;;;;;;;;;;4996564;28;88670;-67
2022/04/19 19:22:44;;;;;;;24.50;9.50;;;;;;;;;;4995650;28;88816;-64
2022/04/19 19:25:11;;;;;;;17.98;8.82;;;;;;;;;;4996956;28;88692;-64
2022/04/19 19:27:37;;;;;;;23.25;10.18;;;;;;;;;;4996502;28;89901;-65
2022/04/19 19:30:04;;;;;;;23.83;9.77;;;;;;;;;;4995772;28;89097;-65
2022/04/19 19:32:30;;;;;;;24.27;9.00;;;;;;;;;;4995649;28;89850;-64
2022/04/19 19:34:56;;;;;;;29.08;10.18;;;;;;;;;;5000659;28;88835;-64
2022/04/19 19:37:23;;;;;;;22.73;9.45;;;;;;;;;;5007923;28;89976;-66
2022/04/19 19:39:49;;;;;;;27.73;8.45;;;;;;;;;;5001938;28;89751;-66
2022/04/19 19:42:17;;;;;;;29.75;10.23;;;;;;;;;;5015798;28;89188;-67
2022/04/19 19:44:43;;;;;;;19.77;8.75;;;;;;;;;;5007390;28;89589;-66
2022/04/19 19:47:10;;;;;;;15.05;6.78;;;;;;;;;;5009852;28;88819;-66
2022/04/19 19:49:36;;;;;;;11.02;4.35;;;;;;;;;;5001375;28;90138;-67
2022/04/19 19:52:08;;;;;;;10.95;4.15;;;;;;;;;;5000388;28;88166;-66
2022/04/19 19:54:35;;;;;;;6.65;3.67;;;;;;;;;;4999676;28;88729;-66
2022/04/19 19:57:01;;;;;;;9.50;3.80;;;;;;;;;;5010169;28;88809;-66
2022/04/19 19:59:27;;;;;;;5.97;2.95;;;;;;;;;;5002764;28;88419;-66
2022/04/19 20:01:53;;;;;;;11.90;2.60;;;;;;;;;;5000194;28;89568;-66
2022/04/19 20:04:20;;;;;;;5.45;3.17;;;;;;;;;;5012139;28;88134;-66
2022/04/19 20:06:46;;;;;;;3.30;2.60;;;;;;;;;;5005237;28;92286;-66
2022/04/19 20:09:13;;;;;;;12.55;2.83;;;;;;;;;;5014617;28;88816;-65
2022/04/19 20:11:40;;;;;;;6.97;3.25;;;;;;;;;;5006868;28;89621;-66
2022/04/19 20:14:06;;;;;;;6.35;2.75;;;;;;;;;;5015055;28;88715;-66
2022/04/19 20:16:33;;;;;;;9.57;3.30;;;;;;;;;;5008235;28;89645;-66
2022/04/19 20:18:59;;;;;;;5.53;3.35;;;;;;;;;;5003380;28;88946;-66
2022/04/19 20:21:26;;;;;;;6.68;3.30;;;;;;;;;;5007566;28;87979;-66
2022/04/19 20:23:53;;;;;;;4.43;2.63;;;;;;;;;;5005566;28;88943;-66
2022/04/19 20:26:19;;;;;;;12.23;4.68;;;;;;;;;;4997304;28;90185;-66
2022/04/19 20:28:46;;;;;;;18.35;4.38;;;;;;;;;;5004438;28;88878;-64
2022/04/19 20:31:12;;;;;;;25.70;5.82;;;;;;;;;;5002137;28;88499;-66
2022/04/19 20:33:38;;;;;;;11.75;5.65;;;;;;;;;;5004358;28;89876;-66
2022/04/19 20:36:05;;;;;;;12.55;5.68;;;;;;;;;;5008371;28;88064;-66
2022/04/19 20:38:31;;;;;;;21.40;7.38;;;;;;;;;;5003206;28;88069;-66
2022/04/19 20:40:57;;;;;;;39.95;11.30;;;;;;;;;;5004725;28;88447;-66
2022/04/19 20:43:24;;;;;;;36.65;12.10;;;;;;;;;;5006537;28;91110;-65
2022/04/19 20:45:50;;;;;;;38.83;12.88;;;;;;;;;;5002207;28;89595;-66
2022/04/19 20:51:01;;;;;;;16.10;6.45;;;;;;;;;;4996427;28;90120;-66
2022/04/19 20:53:28;;;;;;;17.15;6.35;;;;;;;;;;5001357;28;91471;-66
2022/04/19 20:55:54;;;;;;;11.15;5.65;;;;;;;;;;5007547;28;88888;-66